CheckWX is a tool to help pilots better visualize weather data.  It is not intended as a substitute for an official pre-flight weather briefing.

02:10:16 UTC

KLGA METAR
Laguardia Airport
New York, New York, USA
Current

19 mins ago

KLGA 180151Z VRB04KT 10SM OVC060 02/M07 A2998 RMK AO2 SLP153 T00221067
Observed
Feb-18 @ 01:51 UTC
Wind
  • Variable at 4 KTS
Visibility
10 SM
Flight Rules
VFR
Cloud Levels
  • Overcast at 6,000' AGL
Temperature
C / 36°F
Dewpoint
-7°C / 19°F
Humidity
52%
Altimeter
29.98" Hg
Pressure
1015.3 hPa
Previous

1 hour ago

KLGA 180051Z 18007KT 10SM FEW025 BKN055 OVC250 02/M06 A3003 RMK AO2 SLP170 T00171061
Observed
Feb-18 @ 00:51 UTC
Wind
  • 180° at 7 KTS
Visibility
10 SM
Flight Rules
VFR
Cloud Levels
  • Few at 2,500' AGL
  • Broken at 5,500' AGL
  • Overcast at 25,000' AGL
Temperature
C / 36°F
Dewpoint
-6°C / 21°F
Humidity
56%
Altimeter
30.03" Hg
Pressure
1017 hPa
Previous

2 hours ago

KLGA 172351Z 18008KT 10SM BKN055 OVC250 01/M07 A3005 RMK AO2 SLP175 T00111072 10028 20011 50003
Observed
Feb-17 @ 23:51 UTC
Wind
  • 180° at 8 KTS
Visibility
10 SM
Flight Rules
VFR
Cloud Levels
  • Broken at 5,500' AGL
  • Overcast at 25,000' AGL
Temperature
C / 34°F
Dewpoint
-7°C / 19°F
Humidity
56%
Altimeter
30.05" Hg
Pressure
1017.5 hPa